createdAt,value
2023-04-29T00:00:40.319Z,1014.83
2023-04-29T00:01:40.332Z,1014.84
2023-04-29T00:02:40.477Z,1014.79
2023-04-29T00:03:40.522Z,1014.74
2023-04-29T00:04:40.526Z,1014.78
2023-04-29T00:05:40.505Z,1014.84
2023-04-29T00:06:40.323Z,1014.75
2023-04-29T00:07:40.340Z,1014.75
2023-04-29T00:08:40.321Z,1014.89
2023-04-29T00:09:40.330Z,1014.86
2023-04-29T00:10:40.328Z,1014.89
2023-04-29T00:11:40.327Z,1014.85
2023-04-29T00:12:40.313Z,1014.85
2023-04-29T00:13:40.326Z,1014.84
2023-04-29T00:14:40.334Z,1014.85
2023-04-29T00:15:40.323Z,1014.83
2023-04-29T00:16:40.345Z,1014.87
2023-04-29T00:17:40.344Z,1014.91
2023-04-29T00:18:40.321Z,1014.93
2023-04-29T00:19:40.333Z,1015.01
2023-04-29T00:20:40.332Z,1015
2023-04-29T00:21:40.326Z,1014.99
2023-04-29T00:22:40.350Z,1014.96
2023-04-29T00:23:40.322Z,1015
2023-04-29T00:24:40.336Z,1014.93
2023-04-29T00:25:40.318Z,1014.91
2023-04-29T00:26:40.341Z,1014.93
2023-04-29T00:27:40.327Z,1014.96
2023-04-29T00:28:40.333Z,1015.01
2023-04-29T00:29:40.349Z,1014.96
2023-04-29T00:30:40.353Z,1015.01
2023-04-29T00:31:40.340Z,1015
2023-04-29T00:32:40.355Z,1014.97
2023-04-29T00:33:40.331Z,1014.92
2023-04-29T00:34:40.334Z,1014.98
2023-04-29T00:35:40.326Z,1015.03
2023-04-29T00:36:40.331Z,1015.01
2023-04-29T00:37:40.341Z,1014.98
2023-04-29T00:38:40.312Z,1014.92
2023-04-29T00:39:40.335Z,1014.99
2023-04-29T00:40:40.325Z,1014.9
2023-04-29T00:41:40.330Z,1014.84
2023-04-29T00:42:40.321Z,1014.83
2023-04-29T00:43:40.331Z,1014.89
2023-04-29T00:44:40.342Z,1014.88
2023-04-29T00:45:40.379Z,1014.81
2023-04-29T00:46:40.524Z,1014.77
2023-04-29T00:47:40.363Z,1014.75
2023-04-29T00:48:40.326Z,1014.74
2023-04-29T00:49:40.328Z,1014.67
2023-04-29T00:50:40.308Z,1014.68
2023-04-29T00:51:40.315Z,1014.69
2023-04-29T00:52:40.336Z,1014.83
2023-04-29T00:53:40.327Z,1014.71
2023-04-29T00:54:40.394Z,1014.71
2023-04-29T00:55:40.325Z,1014.74
2023-04-29T00:56:40.329Z,1014.71
2023-04-29T00:57:40.327Z,1014.74
2023-04-29T00:58:40.327Z,1014.78
2023-04-29T00:59:40.335Z,1014.8
2023-04-29T01:00:40.322Z,1014.83
2023-04-29T01:01:40.352Z,1014.81
2023-04-29T01:02:40.394Z,1014.83
2023-04-29T01:03:40.474Z,1014.79
2023-04-29T01:04:40.388Z,1014.8
2023-04-29T01:05:40.319Z,1014.76
2023-04-29T01:06:40.326Z,1014.73
2023-04-29T01:07:40.335Z,1014.73
2023-04-29T01:08:40.330Z,1014.69
2023-04-29T01:09:40.332Z,1014.71
2023-04-29T01:10:40.321Z,1014.71
2023-04-29T01:11:40.311Z,1014.78
2023-04-29T01:12:40.329Z,1014.77
2023-04-29T01:13:40.325Z,1014.79
2023-04-29T01:14:40.326Z,1014.78
2023-04-29T01:15:40.364Z,1014.74
2023-04-29T01:16:40.363Z,1014.69
2023-04-29T01:17:40.420Z,1014.68
2023-04-29T01:18:40.320Z,1014.63
2023-04-29T01:19:40.332Z,1014.63
2023-04-29T01:20:40.327Z,1014.65
2023-04-29T01:21:40.323Z,1014.68
2023-04-29T01:22:40.341Z,1014.67
2023-04-29T01:23:40.318Z,1014.69
2023-04-29T01:24:40.326Z,1014.7
2023-04-29T01:25:40.315Z,1014.74
2023-04-29T01:26:40.316Z,1014.71
2023-04-29T01:27:40.325Z,1014.68
2023-04-29T01:28:40.320Z,1014.75
2023-04-29T01:29:40.325Z,1014.7
2023-04-29T01:30:40.310Z,1014.69
2023-04-29T01:31:40.378Z,1014.67
2023-04-29T01:32:40.363Z,1014.64
2023-04-29T01:33:40.326Z,1014.66
2023-04-29T01:34:40.359Z,1014.74
2023-04-29T01:35:40.319Z,1014.75
2023-04-29T01:36:40.327Z,1014.71
2023-04-29T01:37:40.336Z,1014.74
2023-04-29T01:38:40.326Z,1014.69
2023-04-29T01:39:40.329Z,1014.75
2023-04-29T01:40:40.325Z,1014.69
2023-04-29T01:41:40.320Z,1014.71
2023-04-29T01:42:40.332Z,1014.73
2023-04-29T01:43:40.331Z,1014.74
2023-04-29T01:44:40.325Z,1014.78
2023-04-29T01:45:40.318Z,1014.79
2023-04-29T01:46:40.377Z,1014.82
2023-04-29T01:47:40.326Z,1014.87
2023-04-29T01:48:40.325Z,1014.86
2023-04-29T01:49:40.332Z,1014.88
2023-04-29T01:50:40.336Z,1014.93
2023-04-29T01:51:40.324Z,1014.9
2023-04-29T01:52:40.340Z,1014.92
2023-04-29T01:53:40.334Z,1014.91
2023-04-29T01:54:40.327Z,1014.88
2023-04-29T01:55:40.321Z,1014.84
2023-04-29T01:56:40.326Z,1014.91
2023-04-29T01:57:40.321Z,1014.87
2023-04-29T01:58:40.327Z,1014.9
2023-04-29T01:59:40.325Z,1014.87
2023-04-29T02:00:40.347Z,1014.89
2023-04-29T02:01:40.316Z,1014.85
2023-04-29T02:02:40.423Z,1014.86
2023-04-29T02:03:40.628Z,1014.78
2023-04-29T02:04:40.378Z,1014.71
2023-04-29T02:05:40.326Z,1014.7
2023-04-29T02:06:40.322Z,1014.68
2023-04-29T02:07:40.338Z,1014.68
2023-04-29T02:08:40.319Z,1014.65
2023-04-29T02:09:40.328Z,1014.7
2023-04-29T02:10:40.332Z,1014.77
2023-04-29T02:11:40.338Z,1014.75
2023-04-29T02:12:40.325Z,1014.76
2023-04-29T02:13:40.328Z,1014.81
2023-04-29T02:14:40.351Z,1014.77
2023-04-29T02:15:40.327Z,1014.76
2023-04-29T02:16:40.352Z,1014.73
2023-04-29T02:17:40.367Z,1014.7
2023-04-29T02:18:40.331Z,1014.75
2023-04-29T02:19:40.343Z,1014.71
2023-04-29T02:20:40.338Z,1014.83
2023-04-29T02:21:40.330Z,1014.78
2023-04-29T02:22:40.340Z,1014.76
2023-04-29T02:23:40.324Z,1014.84
2023-04-29T02:24:40.339Z,1014.86
2023-04-29T02:25:40.332Z,1014.84
2023-04-29T02:26:40.325Z,1014.83
2023-04-29T02:27:40.333Z,1014.84
2023-04-29T02:28:40.328Z,1014.83
2023-04-29T02:29:40.339Z,1014.8
2023-04-29T02:30:40.329Z,1014.79
2023-04-29T02:31:40.349Z,1014.8
2023-04-29T02:32:40.358Z,1014.78
2023-04-29T02:33:40.337Z,1014.76
2023-04-29T02:34:40.347Z,1014.8
2023-04-29T02:35:40.321Z,1014.83
2023-04-29T02:36:40.338Z,1014.84
2023-04-29T02:37:40.348Z,1014.83
2023-04-29T02:38:40.340Z,1014.83
2023-04-29T02:39:40.343Z,1014.79
2023-04-29T02:40:40.337Z,1014.81
2023-04-29T02:41:40.334Z,1014.76
2023-04-29T02:42:40.328Z,1014.77
2023-04-29T02:43:40.334Z,1014.76
2023-04-29T02:44:40.340Z,1014.75
2023-04-29T02:45:40.346Z,1014.7
2023-04-29T02:46:40.324Z,1014.73
2023-04-29T02:47:40.367Z,1014.73
2023-04-29T02:48:40.325Z,1014.7
2023-04-29T02:49:40.354Z,1014.71
2023-04-29T02:50:40.361Z,1014.73
2023-04-29T02:51:40.348Z,1014.76
2023-04-29T02:52:40.345Z,1014.76
2023-04-29T02:53:40.345Z,1014.77
2023-04-29T02:54:40.343Z,1014.81
2023-04-29T02:55:40.345Z,1014.81
2023-04-29T02:56:40.323Z,1014.8
2023-04-29T02:57:40.328Z,1014.83
2023-04-29T02:58:40.338Z,1014.87
2023-04-29T02:59:40.337Z,1014.84
2023-04-29T03:00:40.319Z,1014.82
2023-04-29T03:01:40.525Z,1014.91
2023-04-29T03:02:40.569Z,1014.93
2023-04-29T03:03:40.521Z,1014.97
2023-04-29T03:04:40.350Z,1014.99
2023-04-29T03:05:40.340Z,1015.01
2023-04-29T03:06:40.332Z,1014.99
2023-04-29T03:07:40.371Z,1014.99
2023-04-29T03:08:40.355Z,1015.03
2023-04-29T03:09:40.343Z,1015.02
2023-04-29T03:10:41.721Z,1014.99
2023-04-29T03:11:40.347Z,1014.96
2023-04-29T03:12:40.333Z,1014.97
2023-04-29T03:13:40.335Z,1014.94
2023-04-29T03:14:40.342Z,1014.93
2023-04-29T03:15:40.328Z,1014.94
2023-04-29T03:16:40.373Z,1014.91
2023-04-29T03:17:40.441Z,1014.9
2023-04-29T03:18:40.328Z,1014.91
2023-04-29T03:19:40.329Z,1014.89
2023-04-29T03:20:40.368Z,1014.82
2023-04-29T03:21:40.328Z,1014.83
2023-04-29T03:22:40.354Z,1014.81
2023-04-29T03:23:40.332Z,1014.78
2023-04-29T03:24:40.341Z,1014.74
2023-04-29T03:25:40.375Z,1014.73
2023-04-29T03:26:40.356Z,1014.71
2023-04-29T03:27:40.355Z,1014.7
2023-04-29T03:28:40.335Z,1014.74
2023-04-29T03:29:40.380Z,1014.71
2023-04-29T03:30:40.335Z,1014.7
2023-04-29T03:31:40.357Z,1014.68
2023-04-29T03:32:40.387Z,1014.71
2023-04-29T03:33:40.325Z,1014.73
2023-04-29T03:34:40.386Z,1014.69
2023-04-29T03:35:40.318Z,1014.65
2023-04-29T03:36:40.330Z,1014.7
2023-04-29T03:37:40.490Z,1014.67
2023-04-29T03:38:40.320Z,1014.65
2023-04-29T03:39:40.324Z,1014.65
2023-04-29T03:40:40.321Z,1014.62
2023-04-29T03:41:40.337Z,1014.62
2023-04-29T03:42:40.326Z,1014.65
2023-04-29T03:43:40.330Z,1014.62
2023-04-29T03:44:40.338Z,1014.65
2023-04-29T03:45:40.330Z,1014.64
2023-04-29T03:46:40.471Z,1014.64
2023-04-29T03:47:40.338Z,1014.65
2023-04-29T03:48:40.328Z,1014.59
2023-04-29T03:49:40.330Z,1014.59
2023-04-29T03:50:40.320Z,1014.58
2023-04-29T03:51:40.321Z,1014.54
2023-04-29T03:52:40.345Z,1014.54
2023-04-29T03:53:40.323Z,1014.59
2023-04-29T03:54:40.328Z,1014.74
2023-04-29T03:55:40.321Z,1014.84
2023-04-29T03:56:40.324Z,1014.77
2023-04-29T03:57:42.264Z,1014.69
2023-04-29T03:58:40.323Z,1014.7
2023-04-29T03:59:40.316Z,1014.74
2023-04-29T04:00:40.314Z,1014.8
2023-04-29T04:01:40.359Z,1014.8
2023-04-29T04:02:40.672Z,1014.77
2023-04-29T04:03:40.443Z,1014.76
2023-04-29T04:04:40.564Z,1014.74
2023-04-29T04:05:40.319Z,1014.74
2023-04-29T04:06:40.308Z,1014.69
2023-04-29T04:07:40.330Z,1014.69
2023-04-29T04:08:40.326Z,1014.6
2023-04-29T04:09:40.329Z,1014.56
2023-04-29T04:10:40.327Z,1014.51
2023-04-29T04:11:40.322Z,1014.43
2023-04-29T04:12:42.074Z,1014.46
2023-04-29T04:13:40.315Z,1014.52
2023-04-29T04:14:40.332Z,1014.54
2023-04-29T04:15:40.329Z,1014.56
2023-04-29T04:16:40.354Z,1014.52
2023-04-29T04:17:40.413Z,1014.5
2023-04-29T04:18:40.323Z,1014.47
2023-04-29T04:19:40.313Z,1014.45
2023-04-29T04:20:40.321Z,1014.5
2023-04-29T04:21:40.330Z,1014.49
2023-04-29T04:22:40.333Z,1014.46
2023-04-29T04:23:40.314Z,1014.44
2023-04-29T04:24:40.336Z,1014.4
2023-04-29T04:25:40.323Z,1014.41
2023-04-29T04:26:40.317Z,1014.41
2023-04-29T04:27:40.339Z,1014.39
2023-04-29T04:28:40.379Z,1014.45
2023-04-29T04:29:40.328Z,1014.44
2023-04-29T04:30:40.313Z,1014.46
2023-04-29T04:31:40.415Z,1014.42
2023-04-29T04:32:40.445Z,1014.39
2023-04-29T04:33:40.316Z,1014.38
2023-04-29T04:34:40.340Z,1014.43
2023-04-29T04:35:40.325Z,1014.43
2023-04-29T04:36:40.313Z,1014.45
2023-04-29T04:37:40.502Z,1014.41
2023-04-29T04:38:40.324Z,1014.44
2023-04-29T04:39:40.333Z,1014.41
2023-04-29T04:40:40.325Z,1014.45
2023-04-29T04:41:40.324Z,1014.39
2023-04-29T04:42:40.316Z,1014.34
2023-04-29T04:43:40.328Z,1014.42
2023-04-29T04:44:40.334Z,1014.46
2023-04-29T04:45:40.363Z,1014.45
2023-04-29T04:46:40.330Z,1014.4
2023-04-29T04:47:40.344Z,1014.38
2023-04-29T04:48:40.318Z,1014.4
2023-04-29T04:49:40.325Z,1014.44
2023-04-29T04:50:40.321Z,1014.44
2023-04-29T04:51:40.329Z,1014.5
2023-04-29T04:52:40.342Z,1014.5
2023-04-29T04:53:40.335Z,1014.5
2023-04-29T04:54:40.338Z,1014.46
2023-04-29T04:55:40.336Z,1014.46
2023-04-29T04:56:40.322Z,1014.47
2023-04-29T04:57:40.324Z,1014.45
2023-04-29T04:58:40.320Z,1014.44
2023-04-29T04:59:40.336Z,1014.5
2023-04-29T05:00:40.324Z,1014.53
2023-04-29T05:01:40.417Z,1014.51
2023-04-29T05:02:40.446Z,1014.5
2023-04-29T05:03:40.592Z,1014.57
2023-04-29T05:04:40.331Z,1014.56
2023-04-29T05:05:40.320Z,1014.58
2023-04-29T05:06:40.317Z,1014.62
2023-04-29T05:07:40.400Z,1014.62
2023-04-29T05:08:40.337Z,1014.64
2023-04-29T05:09:40.342Z,1014.7
2023-04-29T05:10:40.341Z,1014.7
2023-04-29T05:11:40.351Z,1014.66
2023-04-29T05:12:40.357Z,1014.66
2023-04-29T05:13:40.337Z,1014.65
2023-04-29T05:14:40.323Z,1014.67
2023-04-29T05:15:40.356Z,1014.66
2023-04-29T05:16:40.417Z,1014.63
2023-04-29T05:17:40.356Z,1014.65
2023-04-29T05:18:40.322Z,1014.62
2023-04-29T05:19:40.329Z,1014.64
2023-04-29T05:20:40.309Z,1014.62
2023-04-29T05:21:40.344Z,1014.61
2023-04-29T05:22:40.334Z,1014.63
2023-04-29T05:23:40.418Z,1014.66
2023-04-29T05:24:40.343Z,1014.62
2023-04-29T05:25:40.399Z,1014.66
2023-04-29T05:26:40.327Z,1014.67
2023-04-29T05:27:40.323Z,1014.67
2023-04-29T05:28:40.368Z,1014.68
2023-04-29T05:29:40.358Z,1014.64
2023-04-29T05:30:40.357Z,1014.63
2023-04-29T05:31:40.345Z,1014.64
2023-04-29T05:32:40.403Z,1014.65
2023-04-29T05:33:40.341Z,1014.63
2023-04-29T05:34:40.382Z,1014.62
2023-04-29T05:35:40.367Z,1014.7
2023-04-29T05:36:40.357Z,1014.67
2023-04-29T05:37:40.349Z,1014.69
2023-04-29T05:38:40.368Z,1014.67
2023-04-29T05:39:40.374Z,1014.65
2023-04-29T05:40:40.358Z,1014.62
2023-04-29T05:41:40.359Z,1014.71
2023-04-29T05:42:40.349Z,1014.65
2023-04-29T05:43:40.370Z,1014.7
2023-04-29T05:44:40.356Z,1014.66
2023-04-29T05:45:40.377Z,1014.65
2023-04-29T05:46:40.433Z,1014.63
2023-04-29T05:47:40.396Z,1014.58
2023-04-29T05:48:40.344Z,1014.54
2023-04-29T05:49:40.331Z,1014.55
2023-04-29T05:50:40.362Z,1014.53
2023-04-29T05:51:40.387Z,1014.5
2023-04-29T05:52:40.397Z,1014.54
2023-04-29T05:53:40.365Z,1014.58
2023-04-29T05:54:40.389Z,1014.6
2023-04-29T05:55:40.365Z,1014.61
2023-04-29T05:56:40.404Z,1014.61
2023-04-29T05:57:40.319Z,1014.64
2023-04-29T05:58:40.377Z,1014.64
2023-04-29T05:59:40.328Z,1014.69
2023-04-29T06:00:40.367Z,1014.66
2023-04-29T06:01:40.325Z,1014.69
2023-04-29T06:02:54.954Z,1014.66
2023-04-29T06:03:40.582Z,1014.71
2023-04-29T06:04:40.442Z,1014.71
2023-04-29T06:05:40.568Z,1014.69
2023-04-29T06:06:40.314Z,1014.76
2023-04-29T06:07:40.372Z,1014.76
2023-04-29T06:08:40.368Z,1014.82
2023-04-29T06:09:40.348Z,1014.79
2023-04-29T06:10:40.335Z,1014.83
2023-04-29T06:11:40.332Z,1014.78
2023-04-29T06:12:40.388Z,1014.77
2023-04-29T06:13:40.337Z,1014.81
2023-04-29T06:14:40.367Z,1014.73
2023-04-29T06:15:40.314Z,1014.77
2023-04-29T06:16:40.540Z,1014.8
2023-04-29T06:17:40.397Z,1014.87
2023-04-29T06:18:40.323Z,1014.93
2023-04-29T06:19:40.329Z,1014.84
2023-04-29T06:20:40.323Z,1014.88
2023-04-29T06:21:40.326Z,1014.86
2023-04-29T06:22:40.361Z,1014.9
2023-04-29T06:23:40.322Z,1014.89
2023-04-29T06:24:40.341Z,1014.87
2023-04-29T06:25:40.333Z,1014.96
2023-04-29T06:26:40.326Z,1014.9
2023-04-29T06:27:40.320Z,1014.91
2023-04-29T06:28:40.335Z,1014.91
2023-04-29T06:29:40.339Z,1014.89
2023-04-29T06:30:40.329Z,1014.89
2023-04-29T06:31:40.345Z,1014.89
2023-04-29T06:32:40.350Z,1014.88
2023-04-29T06:33:40.328Z,1014.91
2023-04-29T06:34:40.340Z,1014.92
2023-04-29T06:35:40.347Z,1014.93
2023-04-29T06:36:40.328Z,1014.92
2023-04-29T06:37:40.344Z,1014.98
2023-04-29T06:38:40.336Z,1014.98
2023-04-29T06:39:40.340Z,1014.99
2023-04-29T06:40:40.321Z,1014.99
2023-04-29T06:41:40.329Z,1015.03
2023-04-29T06:42:40.337Z,1015.03
2023-04-29T06:43:40.329Z,1015.05
2023-04-29T06:44:40.336Z,1015.01
2023-04-29T06:45:40.311Z,1014.99
2023-04-29T06:46:40.428Z,1015
2023-04-29T06:47:40.394Z,1015.03
2023-04-29T06:48:40.330Z,1014.97
2023-04-29T06:49:40.326Z,1014.98
2023-04-29T06:50:40.323Z,1014.99
2023-04-29T06:51:40.323Z,1014.98
2023-04-29T06:52:40.346Z,1015
2023-04-29T06:53:40.314Z,1014.99
2023-04-29T06:54:40.350Z,1015.04
2023-04-29T06:55:40.350Z,1015.08
2023-04-29T06:56:40.321Z,1015.01
2023-04-29T06:57:40.336Z,1015.03
2023-04-29T06:58:40.325Z,1015.03
2023-04-29T06:59:40.345Z,1015.05
2023-04-29T07:00:40.335Z,1015.06
2023-04-29T07:01:42.500Z,1015.09
2023-04-29T07:02:40.452Z,1015.06
2023-04-29T07:03:40.659Z,1015.07
2023-04-29T07:04:40.427Z,1015.06
2023-04-29T07:05:40.349Z,1015.03
2023-04-29T07:06:40.345Z,1015.01
2023-04-29T07:07:40.335Z,1015.01
2023-04-29T07:08:40.314Z,1015.03
2023-04-29T07:09:40.364Z,1015.08
2023-04-29T07:10:40.332Z,1015.06
2023-04-29T07:11:40.323Z,1015.04
2023-04-29T07:12:40.334Z,1015.08
2023-04-29T07:13:40.332Z,1015.05
2023-04-29T07:14:40.345Z,1015.09
2023-04-29T07:15:40.336Z,1015.14
2023-04-29T07:16:40.391Z,1015.12
2023-04-29T07:17:40.356Z,1015.16
2023-04-29T07:18:40.323Z,1015.14
2023-04-29T07:19:40.335Z,1015.16
2023-04-29T07:20:40.332Z,1015.15
2023-04-29T07:21:40.332Z,1015.2
2023-04-29T07:22:40.339Z,1015.17
2023-04-29T07:23:40.337Z,1015.23
2023-04-29T07:24:40.339Z,1015.23
2023-04-29T07:25:40.327Z,1015.3
2023-04-29T07:26:40.328Z,1015.26
2023-04-29T07:27:40.326Z,1015.28
2023-04-29T07:28:40.322Z,1015.26
2023-04-29T07:29:40.324Z,1015.31
2023-04-29T07:30:40.385Z,1015.3
2023-04-29T07:31:40.333Z,1015.27
2023-04-29T07:32:40.336Z,1015.28
2023-04-29T07:33:40.324Z,1015.29
2023-04-29T07:34:40.343Z,1015.32
2023-04-29T07:35:40.342Z,1015.3
2023-04-29T07:36:40.317Z,1015.34
2023-04-29T07:37:42.723Z,1015.34
2023-04-29T07:38:40.349Z,1015.31
2023-04-29T07:39:40.333Z,1015.36
2023-04-29T07:40:40.315Z,1015.37
2023-04-29T07:41:40.335Z,1015.38
2023-04-29T07:42:40.316Z,1015.39
2023-04-29T07:43:42.280Z,1015.43
2023-04-29T07:44:40.332Z,1015.47
2023-04-29T07:45:40.329Z,1015.44
2023-04-29T07:46:40.464Z,1015.44
2023-04-29T07:47:40.373Z,1015.4
2023-04-29T07:48:40.311Z,1015.43
2023-04-29T07:49:40.329Z,1015.44
2023-04-29T07:50:40.358Z,1015.43
2023-04-29T07:51:40.323Z,1015.44
2023-04-29T07:52:40.334Z,1015.42
2023-04-29T07:53:40.322Z,1015.39
2023-04-29T07:54:40.334Z,1015.37
2023-04-29T07:55:40.317Z,1015.36
2023-04-29T07:56:40.311Z,1015.38
2023-04-29T07:57:40.320Z,1015.38
2023-04-29T07:58:40.323Z,1015.4
2023-04-29T07:59:40.331Z,1015.42
2023-04-29T08:00:40.316Z,1015.43
2023-04-29T08:01:40.314Z,1015.44
2023-04-29T08:02:40.449Z,1015.5
2023-04-29T08:03:41.817Z,1015.48
2023-04-29T08:04:40.599Z,1015.47
2023-04-29T08:05:40.390Z,1015.49
2023-04-29T08:06:40.316Z,1015.5
2023-04-29T08:07:40.351Z,1015.5
2023-04-29T08:08:40.319Z,1015.46
2023-04-29T08:09:40.316Z,1015.48
2023-04-29T08:10:40.317Z,1015.54
2023-04-29T08:11:40.320Z,1015.51
2023-04-29T08:12:40.318Z,1015.57
2023-04-29T08:13:40.321Z,1015.53
2023-04-29T08:14:40.343Z,1015.52
2023-04-29T08:15:40.318Z,1015.54
2023-04-29T08:16:40.406Z,1015.57
2023-04-29T08:17:40.349Z,1015.57
2023-04-29T08:18:40.318Z,1015.59
2023-04-29T08:19:40.325Z,1015.57
2023-04-29T08:20:40.321Z,1015.58
2023-04-29T08:21:40.311Z,1015.62
2023-04-29T08:22:40.326Z,1015.58
2023-04-29T08:23:40.324Z,1015.62
2023-04-29T08:24:40.330Z,1015.59
2023-04-29T08:25:40.325Z,1015.64
2023-04-29T08:26:40.323Z,1015.6
2023-04-29T08:27:40.321Z,1015.59
2023-04-29T08:28:40.313Z,1015.59
2023-04-29T08:29:40.498Z,1015.62
2023-04-29T08:30:40.317Z,1015.61
2023-04-29T08:31:40.413Z,1015.68
2023-04-29T08:32:40.356Z,1015.68
2023-04-29T08:33:40.322Z,1015.67
2023-04-29T08:34:40.334Z,1015.67
2023-04-29T08:35:40.315Z,1015.73
2023-04-29T08:36:40.314Z,1015.73
2023-04-29T08:37:40.335Z,1015.77
2023-04-29T08:38:40.316Z,1015.79
2023-04-29T08:39:40.321Z,1015.78
2023-04-29T08:40:40.319Z,1015.79
2023-04-29T08:41:40.320Z,1015.8
2023-04-29T08:42:40.316Z,1015.78
2023-04-29T08:43:40.322Z,1015.81
2023-04-29T08:44:40.326Z,1015.8
2023-04-29T08:45:40.345Z,1015.79
2023-04-29T08:46:40.315Z,1015.81
2023-04-29T08:47:40.350Z,1015.83
2023-04-29T08:48:42.495Z,1015.84
2023-04-29T08:49:40.322Z,1015.86
2023-04-29T08:50:40.309Z,1015.87
2023-04-29T08:51:40.330Z,1015.87
2023-04-29T08:52:40.326Z,1015.89
2023-04-29T08:53:40.318Z,1015.89
2023-04-29T08:54:40.330Z,1015.89
2023-04-29T08:55:40.321Z,1015.92
2023-04-29T08:56:40.461Z,1015.89
2023-04-29T08:57:40.408Z,1015.94
2023-04-29T08:58:40.319Z,1015.93
2023-04-29T08:59:40.318Z,1015.98
2023-04-29T09:00:40.309Z,1015.96
2023-04-29T09:01:40.374Z,1015.95
2023-04-29T09:02:40.430Z,1015.93
2023-04-29T09:03:40.426Z,1015.98
2023-04-29T09:04:40.359Z,1015.92
2023-04-29T09:05:40.308Z,1015.96
2023-04-29T09:06:40.319Z,1015.93
2023-04-29T09:07:40.330Z,1015.93
2023-04-29T09:08:40.310Z,1015.97
2023-04-29T09:09:40.325Z,1015.96
2023-04-29T09:10:40.316Z,1016.03
2023-04-29T09:11:40.322Z,1016
2023-04-29T09:12:40.309Z,1016.03
2023-04-29T09:13:40.313Z,1016.03
2023-04-29T09:14:40.326Z,1016.01
2023-04-29T09:15:40.317Z,1016.02
2023-04-29T09:16:40.334Z,1016.01
2023-04-29T09:17:40.380Z,1016.01
2023-04-29T09:18:40.309Z,1016.02
2023-04-29T09:19:40.324Z,1016.06
2023-04-29T09:20:40.343Z,1016.08
2023-04-29T09:21:40.314Z,1016.06
2023-04-29T09:22:40.324Z,1016.07
2023-04-29T09:23:40.303Z,1016.09
2023-04-29T09:24:40.326Z,1016.1
2023-04-29T09:25:40.320Z,1016.13
2023-04-29T09:26:40.329Z,1016.13
2023-04-29T09:27:40.324Z,1016.13
2023-04-29T09:28:40.312Z,1016.13
2023-04-29T09:29:40.353Z,1016.16
2023-04-29T09:30:40.338Z,1016.14
2023-04-29T09:31:40.349Z,1016.14
2023-04-29T09:32:40.362Z,1016.14
2023-04-29T09:33:40.318Z,1016.13
2023-04-29T09:34:40.348Z,1016.14
2023-04-29T09:35:40.329Z,1016.14
2023-04-29T09:36:40.325Z,1016.15
2023-04-29T09:37:40.332Z,1016.18
2023-04-29T09:38:40.325Z,1016.17
2023-04-29T09:39:40.332Z,1016.17
2023-04-29T09:40:54.427Z,1016.16
2023-04-29T09:41:40.347Z,1016.14
2023-04-29T09:42:40.325Z,1016.23
2023-04-29T09:43:40.325Z,1016.23
2023-04-29T09:44:40.362Z,1016.21
2023-04-29T09:45:40.324Z,1016.19
2023-04-29T09:46:40.630Z,1016.21
2023-04-29T09:47:40.374Z,1016.25
2023-04-29T09:48:40.323Z,1016.28
2023-04-29T09:49:40.330Z,1016.25
2023-04-29T09:50:40.319Z,1016.27
2023-04-29T09:51:40.333Z,1016.29
2023-04-29T09:52:40.342Z,1016.27
2023-04-29T09:53:40.327Z,1016.33
2023-04-29T09:54:40.341Z,1016.31
2023-04-29T09:55:40.327Z,1016.3
2023-04-29T09:56:40.317Z,1016.27
2023-04-29T09:57:41.583Z,1016.3
2023-04-29T09:58:40.370Z,1016.33
2023-04-29T09:59:40.332Z,1016.32
2023-04-29T10:00:40.331Z,1016.39
2023-04-29T10:01:40.408Z,1016.4
2023-04-29T10:02:40.420Z,1016.47
2023-04-29T10:03:40.460Z,1016.44
2023-04-29T10:04:40.475Z,1016.45
2023-04-29T10:05:40.329Z,1016.46
2023-04-29T10:06:40.332Z,1016.49
2023-04-29T10:07:40.340Z,1016.49
2023-04-29T10:08:40.315Z,1016.45
2023-04-29T10:09:40.329Z,1016.47
2023-04-29T10:10:40.327Z,1016.43
2023-04-29T10:11:40.321Z,1016.46
2023-04-29T10:12:40.332Z,1016.46
2023-04-29T10:13:40.326Z,1016.41
2023-04-29T10:14:40.359Z,1016.38
2023-04-29T10:15:40.355Z,1016.38
2023-04-29T10:16:40.344Z,1016.38
2023-04-29T10:17:40.323Z,1016.4
2023-04-29T10:18:40.349Z,1016.37
2023-04-29T10:19:40.333Z,1016.36
2023-04-29T10:20:40.326Z,1016.3
2023-04-29T10:21:40.318Z,1016.32
2023-04-29T10:22:40.336Z,1016.27
2023-04-29T10:23:40.326Z,1016.29
2023-04-29T10:24:40.338Z,1016.28
2023-04-29T10:25:40.313Z,1016.23
2023-04-29T10:26:40.329Z,1016.22
2023-04-29T10:27:40.314Z,1016.26
2023-04-29T10:28:40.331Z,1016.26
2023-04-29T10:29:40.337Z,1016.16
2023-04-29T10:30:40.305Z,1016.09
2023-04-29T10:31:40.363Z,1016.15
2023-04-29T10:32:50.547Z,1016.08
2023-04-29T10:33:40.350Z,1016.09
2023-04-29T10:34:40.343Z,1016.07
2023-04-29T10:35:40.312Z,1016.01
2023-04-29T10:36:40.336Z,1016.07
2023-04-29T10:37:40.337Z,1016.01
2023-04-29T10:38:40.352Z,1016.01
2023-04-29T10:39:40.323Z,1015.99
2023-04-29T10:40:40.314Z,1016.01
2023-04-29T10:41:40.325Z,1016.05
2023-04-29T10:42:40.317Z,1016.05
2023-04-29T10:43:40.306Z,1016.05
2023-04-29T10:44:40.333Z,1016
2023-04-29T10:45:40.314Z,1016.05
2023-04-29T10:46:40.369Z,1015.95
2023-04-29T10:47:40.365Z,1016
2023-04-29T10:48:40.320Z,1016
2023-04-29T10:49:40.330Z,1016.01
2023-04-29T10:50:40.330Z,1016.03
2023-04-29T10:51:40.307Z,1016.02
2023-04-29T10:52:40.336Z,1016.05
2023-04-29T10:53:40.320Z,1015.95
2023-04-29T10:54:40.336Z,1016.04
2023-04-29T10:55:40.308Z,1015.96
2023-04-29T10:56:40.317Z,1015.97
2023-04-29T10:57:40.322Z,1015.99
2023-04-29T10:58:40.321Z,1015.93
2023-04-29T10:59:40.331Z,1015.91
2023-04-29T11:00:40.371Z,1015.89
2023-04-29T11:01:40.323Z,1015.98
2023-04-29T11:02:40.383Z,1015.91
2023-04-29T11:03:40.490Z,1015.98
2023-04-29T11:04:40.352Z,1015.95
2023-04-29T11:05:40.313Z,1015.96
2023-04-29T11:06:40.321Z,1015.9
2023-04-29T11:07:40.335Z,1015.9
2023-04-29T11:08:40.316Z,1015.97
2023-04-29T11:09:40.328Z,1016
2023-04-29T11:10:40.323Z,1016.01
2023-04-29T11:11:40.325Z,1016.02
2023-04-29T11:12:40.321Z,1016
2023-04-29T11:13:40.320Z,1015.95
2023-04-29T11:14:40.340Z,1016.01
2023-04-29T11:15:40.320Z,1016.09
2023-04-29T11:16:40.344Z,1016.09
2023-04-29T11:17:40.425Z,1016.1
2023-04-29T11:18:40.328Z,1016.16
2023-04-29T11:19:40.321Z,1016.14
2023-04-29T11:20:40.321Z,1016.1
2023-04-29T11:21:40.316Z,1016.05
2023-04-29T11:22:40.343Z,1016.03
2023-04-29T11:23:40.333Z,1016.05
2023-04-29T11:24:40.335Z,1016.03
2023-04-29T11:25:40.335Z,1016.02
2023-04-29T11:26:40.325Z,1016.03
2023-04-29T11:27:40.355Z,1016.06
2023-04-29T11:28:40.321Z,1016.14
2023-04-29T11:29:40.338Z,1016.07
2023-04-29T11:30:40.330Z,1016.02
2023-04-29T11:31:40.395Z,1016.08
2023-04-29T11:32:40.712Z,1016.13
2023-04-29T11:33:40.328Z,1016.09
2023-04-29T11:34:40.336Z,1016.12
2023-04-29T11:35:40.324Z,1016.19
2023-04-29T11:36:40.332Z,1016.06
2023-04-29T11:37:40.446Z,1016.13
2023-04-29T11:38:40.335Z,1016.21
2023-04-29T11:39:40.339Z,1016.05
2023-04-29T11:40:40.332Z,1016.15
2023-04-29T11:41:40.326Z,1016.07
2023-04-29T11:42:40.324Z,1016.18
2023-04-29T11:43:40.320Z,1016.19
2023-04-29T11:44:40.338Z,1016.16
2023-04-29T11:45:40.366Z,1016.17
2023-04-29T11:46:40.389Z,1016.22
2023-04-29T11:47:40.336Z,1016.21
2023-04-29T11:48:40.324Z,1016.27
2023-04-29T11:49:40.349Z,1016.3
2023-04-29T11:50:40.319Z,1016.3
2023-04-29T11:51:40.325Z,1016.32
2023-04-29T11:52:40.350Z,1016.26
2023-04-29T11:53:40.328Z,1016.32
2023-04-29T11:54:40.329Z,1016.46
2023-04-29T11:55:40.323Z,1016.42
2023-04-29T11:56:40.319Z,1016.41
2023-04-29T11:57:40.316Z,1016.48
2023-04-29T11:58:40.325Z,1016.47
2023-04-29T11:59:40.321Z,1016.53
2023-04-29T12:00:40.318Z,1016.51
2023-04-29T12:01:40.317Z,1016.55
2023-04-29T12:02:40.518Z,1016.53
2023-04-29T12:03:40.569Z,1016.52
2023-04-29T12:04:40.520Z,1016.6
2023-04-29T12:05:40.423Z,1016.63
2023-04-29T12:06:40.315Z,1016.62
2023-04-29T12:07:40.338Z,1016.62
2023-04-29T12:08:40.318Z,1016.61